Time;durP1;ratioP1;P1;durP2;ratioP2;P2;SDS_P1;SDS_P2;PMS_P1;PMS_P2;Temp;Humidity;BMP_temperature;BMP_pressure;BME280_temperature;BME280_humidity;BME280_pressure;Samples;Min_cycle;Max_cycle;Signal;HPM_P1;HPM_P2
2022/03/16 00:00:20;;;;;;;70.88;38.63;;;5.50;99.90;;;;;;5096021;28;20124;-75
2022/03/16 00:02:49;;;;;;;70.53;36.95;;;5.30;99.90;;;;;;5079519;28;20486;-75
2022/03/16 00:05:16;;;;;;;73.18;37.50;;;5.30;99.90;;;;;;5114929;28;20126;-75
2022/03/16 00:07:42;;;;;;;82.85;40.97;;;5.60;99.90;;;;;;5114595;28;20036;-75
2022/03/16 00:10:08;;;;;;;70.18;35.50;;;5.30;99.90;;;;;;5114084;28;20113;-75
2022/03/16 00:12:35;;;;;;;72.25;38.45;;;5.20;99.90;;;;;;5114635;28;20039;-75
2022/03/16 00:15:01;;;;;;;66.57;36.15;;;5.20;99.90;;;;;;5114742;28;20046;-75
2022/03/16 00:17:27;;;;;;;79.80;38.83;;;5.30;99.90;;;;;;5110743;28;20040;-75
2022/03/16 00:19:52;;;;;;;92.40;41.17;;;5.20;99.90;;;;;;5112755;28;20075;-75
2022/03/16 00:22:18;;;;;;;79.95;40.05;;;5.10;99.90;;;;;;5113890;28;20044;-75
2022/03/16 00:24:44;;;;;;;86.18;40.83;;;5.10;99.90;;;;;;5114228;28;20047;-75
2022/03/16 00:27:09;;;;;;;89.20;41.85;;;5.30;99.90;;;;;;5114494;28;20043;-75
2022/03/16 00:29:35;;;;;;;94.05;41.97;;;5.10;99.90;;;;;;5113158;28;20083;-75
2022/03/16 00:32:01;;;;;;;82.45;42.03;;;5.10;99.90;;;;;;5112473;28;20054;-75
2022/03/16 00:34:27;;;;;;;93.07;43.28;;;5.10;99.90;;;;;;5107526;28;20032;-75
2022/03/16 00:36:53;;;;;;;91.68;43.13;;;5.20;99.90;;;;;;5113624;28;20048;-75
2022/03/16 00:39:19;;;;;;;70.25;35.47;;;5.10;99.90;;;;;;5113914;28;20040;-75
2022/03/16 00:41:44;;;;;;;82.22;38.97;;;5.00;99.90;;;;;;5114419;28;20043;-75
2022/03/16 00:44:10;;;;;;;67.15;33.83;;;5.00;99.90;;;;;;5113145;28;20047;-75
2022/03/16 00:46:36;;;;;;;87.60;39.80;;;5.00;99.90;;;;;;5113628;28;20075;-75
2022/03/16 00:49:03;;;;;;;86.72;41.08;;;5.00;99.90;;;;;;5108821;28;20149;-75
2022/03/16 00:51:29;;;;;;;73.90;37.40;;;4.90;99.90;;;;;;5112329;28;20055;-75
2022/03/16 00:53:55;;;;;;;53.88;31.50;;;5.20;99.90;;;;;;5113797;28;20390;-75
2022/03/16 00:56:21;;;;;;;60.53;33.38;;;4.90;99.90;;;;;;5114126;28;20039;-75
2022/03/16 00:58:47;;;;;;;65.47;35.42;;;4.80;99.90;;;;;;5094784;28;20043;-75
2022/03/16 01:01:13;;;;;;;97.90;39.60;;;4.80;99.90;;;;;;5114534;28;20047;-75
2022/03/16 01:03:41;;;;;;;62.80;34.00;;;4.80;99.90;;;;;;5082856;28;20475;-74
2022/03/16 01:06:12;;;;;;;64.60;35.97;;;4.70;99.90;;;;;;5092946;28;20028;-74
2022/03/16 01:08:39;;;;;;;62.28;32.70;;;4.70;99.90;;;;;;5092073;28;20105;-75
2022/03/16 01:11:05;;;;;;;50.22;27.33;;;4.70;99.90;;;;;;5094814;28;20052;-74
2022/03/16 01:13:30;;;;;;;43.83;25.98;;;5.00;99.90;;;;;;5094471;28;20050;-75
2022/03/16 01:15:56;;;;;;;55.60;28.42;;;4.60;99.90;;;;;;5113838;28;20031;-75
2022/03/16 01:18:22;;;;;;;61.47;32.42;;;4.50;99.90;;;;;;5100185;28;20043;-75
2022/03/16 01:20:47;;;;;;;59.35;33.50;;;4.40;99.90;;;;;;5088482;28;20035;-75
2022/03/16 01:23:13;;;;;;;117.57;40.67;;;4.40;99.90;;;;;;5113916;28;20039;-75
2022/03/16 01:25:39;;;;;;;73.80;37.08;;;4.50;99.90;;;;;;5112359;28;20120;-75
2022/03/16 01:28:05;;;;;;;82.93;39.38;;;4.40;99.90;;;;;;5113886;28;20028;-75
2022/03/16 01:30:30;;;;;;;49.40;31.02;;;4.40;99.90;;;;;;5113227;28;20478;-74
2022/03/16 01:32:56;;;;;;;58.05;33.47;;;4.80;99.90;;;;;;5113028;28;20039;-75
2022/03/16 01:35:22;;;;;;;63.20;34.33;;;4.40;99.90;;;;;;5094277;28;20559;-74
2022/03/16 01:37:48;;;;;;;59.72;34.50;;;4.80;99.90;;;;;;5113858;28;20100;-75
2022/03/16 01:40:13;;;;;;;73.95;38.08;;;4.40;99.90;;;;;;5112269;28;20035;-75
2022/03/16 01:42:40;;;;;;;59.58;33.92;;;4.40;99.90;;;;;;5113752;28;20049;-75
2022/03/16 01:45:07;;;;;;;70.57;35.30;;;4.50;99.90;;;;;;5113317;28;20047;-75
2022/03/16 01:47:32;;;;;;;74.47;36.72;;;4.40;99.90;;;;;;5094795;28;20051;-75
2022/03/16 01:49:58;;;;;;;63.88;34.78;;;5.00;99.90;;;;;;5110985;28;20146;-75
2022/03/16 01:52:26;;;;;;;59.88;33.60;;;4.50;99.90;;;;;;5113690;28;20036;-75
2022/03/16 01:54:52;;;;;;;50.92;29.63;;;4.40;99.90;;;;;;5094083;28;20054;-75
2022/03/16 01:57:18;;;;;;;55.33;31.45;;;4.30;99.90;;;;;;5113420;28;20047;-75
2022/03/16 01:59:45;;;;;;;52.03;29.50;;;4.80;99.90;;;;;;5113234;28;20043;-75
2022/03/16 02:02:11;;;;;;;51.45;28.33;;;4.20;99.90;;;;;;5106172;28;20100;-75
2022/03/16 02:04:37;;;;;;;90.47;36.47;;;4.20;99.90;;;;;;5095693;28;20036;-75
2022/03/16 02:07:03;;;;;;;84.82;36.40;;;4.20;99.90;;;;;;5097433;28;20043;-75
2022/03/16 02:09:30;;;;;;;61.35;33.13;;;4.10;99.90;;;;;;5115448;28;20092;-75
2022/03/16 02:11:56;;;;;;;52.55;29.13;;;4.10;99.90;;;;;;5116781;28;20036;-75
2022/03/16 02:14:22;;;;;;;62.38;33.60;;;4.40;99.90;;;;;;5117225;28;20119;-75
2022/03/16 02:16:48;;;;;;;55.05;30.75;;;4.00;99.90;;;;;;5116112;28;20122;-75
2022/03/16 02:19:15;;;;;;;54.80;28.65;;;4.10;99.90;;;;;;5116369;28;20032;-75
2022/03/16 02:21:43;;;;;;;45.28;27.15;;;4.00;99.90;;;;;;5116292;28;20109;-75
2022/03/16 02:24:09;;;;;;;40.08;24.73;;;3.90;99.90;;;;;;5096781;28;20040;-75
2022/03/16 02:26:35;;;;;;;39.08;26.00;;;4.70;99.90;;;;;;5097869;28;20097;-75
2022/03/16 02:29:01;;;;;;;34.65;21.63;;;3.80;99.90;;;;;;5097603;28;20040;-75
2022/03/16 02:31:27;;;;;;;35.00;19.33;;;3.80;99.90;;;;;;5115838;28;20054;-75
2022/03/16 02:33:53;;;;;;;74.53;23.48;;;3.80;99.90;;;;;;5116875;28;20043;-75
2022/03/16 02:36:19;;;;;;;54.20;24.42;;;3.70;99.90;;;;;;5115737;28;20525;-75
2022/03/16 02:38:45;;;;;;;34.00;21.25;;;3.60;99.90;;;;;;5113638;28;20028;-75
2022/03/16 02:41:11;;;;;;;39.28;23.88;;;3.60;99.90;;;;;;5102958;28;20047;-75
2022/03/16 02:43:38;;;;;;;41.35;22.80;;;3.60;99.90;;;;;;5078544;28;20044;-75
2022/03/16 02:46:06;;;;;;;91.50;28.00;;;3.60;99.90;;;;;;5116246;28;20075;-75
2022/03/16 02:48:32;;;;;;;287.70;37.20;;;3.60;99.90;;;;;;5097656;28;20238;-75
2022/03/16 02:50:58;;;;;;;280.88;41.67;;;3.60;99.90;;;;;;5115246;28;20096;-75
2022/03/16 02:53:24;;;;;;;84.63;29.65;;;3.60;99.90;;;;;;5097619;28;20032;-75
2022/03/16 02:55:51;;;;;;;54.45;27.38;;;3.60;99.90;;;;;;5115604;28;20048;-75
2022/03/16 02:58:17;;;;;;;43.42;27.00;;;3.60;99.90;;;;;;5115636;28;20055;-75
2022/03/16 03:00:43;;;;;;;52.55;27.25;;;3.60;99.90;;;;;;5115949;28;20051;-75
2022/03/16 03:03:09;;;;;;;112.22;33.58;;;3.60;99.90;;;;;;5098043;28;20075;-75
2022/03/16 03:05:35;;;;;;;54.90;27.98;;;3.60;99.90;;;;;;5097089;28;20043;-75
2022/03/16 03:08:01;;;;;;;44.58;24.13;;;3.60;99.90;;;;;;5115612;28;20393;-75
2022/03/16 03:10:27;;;;;;;68.05;29.85;;;3.60;99.90;;;;;;5096412;28;20040;-75
2022/03/16 03:12:53;;;;;;;64.28;28.45;;;3.60;99.90;;;;;;5115522;28;20055;-75
2022/03/16 03:15:19;;;;;;;78.15;32.38;;;3.60;99.90;;;;;;5114779;28;20047;-75
2022/03/16 03:17:45;;;;;;;55.13;26.73;;;3.60;99.90;;;;;;5097693;28;20051;-75
2022/03/16 03:20:12;;;;;;;87.82;33.97;;;3.60;99.90;;;;;;5114764;28;20089;-75
2022/03/16 03:22:41;;;;;;;123.18;38.35;;;3.60;99.90;;;;;;5097685;28;20397;-75
2022/03/16 03:25:12;;;;;;;189.07;42.00;;;3.60;99.90;;;;;;5108199;28;20501;-75
2022/03/16 03:27:38;;;;;;;307.63;51.88;;;3.60;99.90;;;;;;5115397;28;20036;-75
2022/03/16 03:30:04;;;;;;;102.75;36.30;;;3.60;99.90;;;;;;5114981;28;20497;-75
2022/03/16 03:32:30;;;;;;;170.23;42.38;;;3.60;99.90;;;;;;5115124;28;20433;-75
2022/03/16 03:34:56;;;;;;;191.80;42.85;;;3.60;99.90;;;;;;5080018;28;20090;-75
2022/03/16 03:37:25;;;;;;;133.23;35.83;;;3.70;99.90;;;;;;5115601;28;20406;-75
2022/03/16 03:39:52;;;;;;;109.80;34.00;;;3.70;99.90;;;;;;5112821;28;20039;-75
2022/03/16 03:42:18;;;;;;;78.28;31.80;;;3.70;99.90;;;;;;5115096;28;20056;-75
2022/03/16 03:44:44;;;;;;;56.00;29.38;;;3.70;99.90;;;;;;5114637;28;20042;-75
2022/03/16 03:47:10;;;;;;;49.65;27.35;;;3.70;99.90;;;;;;5114420;28;20043;-75
2022/03/16 03:49:38;;;;;;;67.28;26.52;;;3.60;99.90;;;;;;5114377;28;20085;-75
2022/03/16 03:52:04;;;;;;;36.33;23.48;;;3.60;99.90;;;;;;5115095;28;20043;-75
2022/03/16 03:54:30;;;;;;;70.18;28.75;;;3.60;99.90;;;;;;5113658;28;20461;-75
2022/03/16 03:56:56;;;;;;;87.35;22.27;;;3.60;99.90;;;;;;5093050;28;20155;-75
2022/03/16 03:59:23;;;;;;;96.22;27.23;;;3.50;99.90;;;;;;5096460;28;20399;-75
2022/03/16 04:01:49;;;;;;;59.03;22.75;;;3.50;99.90;;;;;;5114361;28;20130;-75
2022/03/16 04:04:15;;;;;;;154.93;35.85;;;3.40;99.90;;;;;;5114570;28;20051;-75
2022/03/16 04:06:41;;;;;;;48.25;25.25;;;3.40;99.90;;;;;;5094709;28;20119;-75
2022/03/16 04:09:07;;;;;;;50.88;26.75;;;3.30;99.90;;;;;;5109991;28;20127;-75
2022/03/16 04:11:33;;;;;;;141.70;33.47;;;3.30;99.90;;;;;;5113013;28;20055;-75
2022/03/16 04:13:59;;;;;;;53.25;26.85;;;3.30;99.90;;;;;;5096538;28;20044;-75
2022/03/16 04:16:25;;;;;;;130.70;30.00;;;3.30;99.90;;;;;;5058685;28;20090;-75
2022/03/16 04:18:51;;;;;;;210.57;27.15;;;3.30;99.90;;;;;;5107044;28;20458;-75
2022/03/16 04:21:17;;;;;;;238.35;29.98;;;3.30;99.90;;;;;;5096303;28;20051;-75
2022/03/16 04:23:42;;;;;;;90.50;21.38;;;3.30;99.90;;;;;;5092380;28;20048;-75
2022/03/16 04:26:09;;;;;;;86.18;24.50;;;3.30;99.90;;;;;;5113679;28;20065;-75
2022/03/16 04:28:35;;;;;;;106.88;29.90;;;3.20;99.90;;;;;;5113190;28;20047;-75
2022/03/16 04:31:01;;;;;;;130.00;33.85;;;3.20;99.90;;;;;;5114033;28;20050;-75
2022/03/16 04:33:28;;;;;;;70.40;27.38;;;3.20;99.90;;;;;;5113977;28;20475;-75
2022/03/16 04:35:54;;;;;;;108.03;30.35;;;3.10;99.90;;;;;;5113295;28;20079;-75
2022/03/16 04:38:20;;;;;;;86.03;32.17;;;3.10;99.90;;;;;;5112173;28;20071;-75
2022/03/16 04:40:46;;;;;;;119.10;39.08;;;3.00;99.90;;;;;;5114328;28;20086;-75
2022/03/16 04:43:12;;;;;;;103.65;30.10;;;3.10;99.90;;;;;;5113234;28;20422;-75
2022/03/16 04:45:39;;;;;;;59.25;23.75;;;3.10;99.90;;;;;;5079221;28;20044;-75
2022/03/16 04:48:09;;;;;;;78.60;34.25;;;3.00;99.90;;;;;;5113744;28;20051;-75
2022/03/16 04:50:36;;;;;;;113.80;38.08;;;3.00;99.90;;;;;;5095254;28;20074;-75
2022/03/16 04:53:02;;;;;;;217.30;50.42;;;3.10;99.90;;;;;;5111279;28;20062;-75
2022/03/16 04:55:28;;;;;;;136.07;41.33;;;3.10;99.90;;;;;;5114160;28;20044;-76
2022/03/16 04:57:54;;;;;;;205.73;50.75;;;3.20;99.90;;;;;;5113058;28;20126;-76
2022/03/16 05:00:20;;;;;;;193.40;45.10;;;3.20;99.90;;;;;;5113709;28;20079;-76
2022/03/16 05:02:46;;;;;;;271.50;51.05;;;3.30;99.90;;;;;;5095466;28;20047;-76
2022/03/16 05:05:12;;;;;;;195.35;42.47;;;3.30;99.90;;;;;;5113397;28;20050;-76
2022/03/16 05:07:38;;;;;;;360.33;56.15;;;3.30;99.90;;;;;;5107477;28;20056;-75
2022/03/16 05:10:07;;;;;;;104.20;36.20;;;3.30;99.90;;;;;;5101666;28;20044;-76
2022/03/16 05:12:41;;;;;;;138.30;39.03;;;3.30;99.90;;;;;;5112730;28;20079;-75
2022/03/16 05:15:09;;;;;;;143.48;40.50;;;3.40;99.90;;;;;;5114013;28;20044;-75
2022/03/16 05:17:35;;;;;;;79.63;35.33;;;3.40;99.90;;;;;;5112862;28;20044;-75
2022/03/16 05:20:01;;;;;;;74.20;35.42;;;3.40;99.90;;;;;;5113645;28;20042;-75
2022/03/16 05:22:27;;;;;;;64.45;33.92;;;3.40;99.90;;;;;;5095362;28;20402;-75
2022/03/16 05:24:53;;;;;;;82.25;38.97;;;3.40;99.90;;;;;;5104331;28;20112;-75
2022/03/16 05:27:20;;;;;;;91.43;36.28;;;3.40;99.90;;;;;;5078589;28;20071;-75
2022/03/16 05:29:47;;;;;;;62.20;31.85;;;3.40;99.90;;;;;;5095363;28;20123;-75
2022/03/16 05:32:13;;;;;;;79.50;37.30;;;3.50;99.90;;;;;;5112845;28;20052;-75
2022/03/16 05:34:38;;;;;;;71.75;33.92;;;3.50;99.90;;;;;;5113510;28;20058;-75
2022/03/16 05:37:05;;;;;;;65.93;33.70;;;3.50;99.90;;;;;;5113424;28;20042;-75
2022/03/16 05:39:31;;;;;;;104.70;40.03;;;3.50;99.90;;;;;;5113347;28;20047;-75
2022/03/16 05:41:56;;;;;;;70.78;35.22;;;3.50;99.90;;;;;;5117349;28;20053;-75
2022/03/16 05:44:23;;;;;;;60.40;30.27;;;3.60;99.90;;;;;;5117104;28;20050;-75
2022/03/16 05:46:48;;;;;;;47.47;27.60;;;3.60;99.90;;;;;;5117226;28;20097;-75
2022/03/16 05:49:14;;;;;;;66.22;31.45;;;3.60;99.90;;;;;;5116827;28;20051;-75
2022/03/16 05:51:40;;;;;;;64.88;33.13;;;3.60;99.90;;;;;;5117516;28;20122;-75
2022/03/16 05:54:06;;;;;;;73.90;34.10;;;3.60;99.90;;;;;;5115702;28;20128;-75
2022/03/16 05:56:32;;;;;;;47.20;28.80;;;3.60;99.90;;;;;;5117150;28;20050;-75
2022/03/16 05:58:57;;;;;;;63.45;32.85;;;3.60;99.90;;;;;;5117187;28;20079;-75
2022/03/16 06:01:23;;;;;;;53.10;28.55;;;3.60;99.90;;;;;;5086810;28;20056;-75
2022/03/16 06:03:49;;;;;;;51.65;26.25;;;3.60;99.90;;;;;;5096585;28;20131;-75
2022/03/16 06:06:15;;;;;;;38.03;25.27;;;3.60;99.90;;;;;;5084243;28;20105;-75
2022/03/16 06:08:41;;;;;;;51.13;27.55;;;3.60;99.90;;;;;;5116542;28;20039;-75
2022/03/16 06:11:07;;;;;;;59.05;29.80;;;3.60;99.90;;;;;;5116934;28;20089;-74
2022/03/16 06:13:33;;;;;;;49.08;27.55;;;3.60;99.90;;;;;;5100833;28;20142;-75
2022/03/16 06:15:59;;;;;;;52.92;30.05;;;3.60;99.90;;;;;;5101753;28;20487;-75
2022/03/16 06:18:24;;;;;;;54.10;30.45;;;3.60;99.90;;;;;;5078289;28;20040;-75
2022/03/16 06:20:50;;;;;;;66.45;34.05;;;3.70;99.90;;;;;;5096590;28;20046;-75
2022/03/16 06:23:16;;;;;;;89.68;37.20;;;3.70;99.90;;;;;;5095888;28;20079;-74
2022/03/16 06:25:42;;;;;;;81.20;38.00;;;3.70;99.90;;;;;;5112247;28;20051;-75
2022/03/16 06:28:08;;;;;;;87.90;38.22;;;3.70;99.90;;;;;;5116154;28;20039;-75
2022/03/16 06:30:34;;;;;;;70.03;34.40;;;3.80;99.90;;;;;;5116341;28;20083;-74
2022/03/16 06:33:00;;;;;;;106.40;39.03;;;3.80;99.90;;;;;;5115016;28;20506;-75
2022/03/16 06:35:26;;;;;;;64.97;35.15;;;3.80;99.90;;;;;;5116229;28;20065;-75
2022/03/16 06:37:52;;;;;;;50.40;30.15;;;3.80;99.90;;;;;;5116316;28;20534;-75
2022/03/16 06:40:18;;;;;;;58.25;31.88;;;3.90;99.90;;;;;;5116701;28;20082;-74
2022/03/16 06:42:50;;;;;;;65.55;29.60;;;3.90;99.90;;;;;;5116112;28;20126;-75
2022/03/16 06:45:17;;;;;;;56.25;31.58;;;4.00;99.90;;;;;;5116289;28;20501;-75
2022/03/16 06:47:43;;;;;;;78.13;35.72;;;4.00;99.90;;;;;;5113058;28;20397;-75
2022/03/16 06:50:09;;;;;;;73.38;34.88;;;4.00;99.90;;;;;;5114538;28;20052;-75
2022/03/16 06:52:35;;;;;;;51.85;31.88;;;4.10;99.90;;;;;;5098073;28;20036;-75
2022/03/16 06:55:00;;;;;;;58.72;33.97;;;4.10;99.90;;;;;;5116173;28;20058;-75
2022/03/16 06:57:26;;;;;;;64.30;35.22;;;4.20;99.90;;;;;;5097798;28;20036;-75
2022/03/16 06:59:52;;;;;;;66.80;36.13;;;4.30;99.90;;;;;;5116160;28;20351;-75
2022/03/16 07:02:18;;;;;;;54.40;33.88;;;4.30;99.90;;;;;;5088053;28;20053;-75
2022/03/16 07:04:43;;;;;;;59.97;34.67;;;4.40;99.90;;;;;;5105735;28;20071;-74
2022/03/16 07:07:09;;;;;;;55.90;34.20;;;4.40;99.90;;;;;;5077408;28;20032;-75
2022/03/16 07:09:35;;;;;;;60.03;35.65;;;4.50;99.90;;;;;;5095733;28;20115;-75
2022/03/16 07:12:01;;;;;;;56.17;32.97;;;4.60;99.90;;;;;;5094707;28;20511;-75
2022/03/16 07:14:33;;;;;;;52.78;31.60;;;4.70;99.90;;;;;;5095426;28;20118;-74
2022/03/16 07:17:00;;;;;;;52.85;34.35;;;4.80;99.90;;;;;;5095649;28;20051;-74
2022/03/16 07:19:26;;;;;;;53.05;34.85;;;4.80;99.90;;;;;;5086439;28;20130;-74
2022/03/16 07:21:51;;;;;;;59.58;36.75;;;4.90;99.90;;;;;;5110720;28;20499;-75
2022/03/16 07:24:17;;;;;;;54.05;35.03;;;5.00;99.90;;;;;;5075799;28;20048;-75
2022/03/16 07:26:44;;;;;;;59.90;36.40;;;5.10;99.90;;;;;;5101565;28;20040;-73
2022/03/16 07:29:12;;;;;;;62.65;36.22;;;5.10;99.90;;;;;;5102138;28;20040;-75
2022/03/16 07:31:38;;;;;;;55.35;33.78;;;5.20;99.90;;;;;;5114686;28;20482;-74
2022/03/16 07:34:04;;;;;;;49.75;33.47;;;5.30;99.90;;;;;;5096597;28;20040;-75
2022/03/16 07:36:31;;;;;;;50.03;34.10;;;5.40;99.90;;;;;;5094852;28;20040;-75
2022/03/16 07:38:57;;;;;;;50.30;33.20;;;5.50;99.90;;;;;;5095170;28;20048;-75
2022/03/16 07:41:26;;;;;;;52.03;34.33;;;5.60;99.90;;;;;;5106875;28;20449;-75
2022/03/16 07:43:52;;;;;;;53.78;32.72;;;5.70;99.90;;;;;;5094715;28;20048;-75
2022/03/16 07:46:18;;;;;;;48.85;32.40;;;5.70;99.90;;;;;;5111726;28;20040;-75
2022/03/16 07:48:45;;;;;;;48.78;33.70;;;5.80;99.90;;;;;;5114143;28;20078;-75
2022/03/16 07:51:11;;;;;;;46.50;32.03;;;5.90;99.90;;;;;;5114858;28;20039;-75
2022/03/16 07:53:38;;;;;;;47.22;31.75;;;6.00;99.90;;;;;;5095940;28;20040;-74
2022/03/16 07:56:04;;;;;;;45.50;31.67;;;6.10;99.90;;;;;;5111672;28;20122;-75
2022/03/16 07:58:30;;;;;;;43.10;30.65;;;6.20;99.90;;;;;;5095781;28;20046;-75
2022/03/16 08:00:56;;;;;;;50.88;31.83;;;6.20;99.90;;;;;;5113572;28;20043;-75
2022/03/16 08:03:22;;;;;;;53.35;31.77;;;6.40;99.90;;;;;;5113635;28;20091;-75
2022/03/16 08:05:48;;;;;;;47.13;32.47;;;6.40;99.90;;;;;;5111862;28;20058;-75
2022/03/16 08:08:14;;;;;;;40.17;30.70;;;6.50;99.90;;;;;;5110406;28;20123;-75
2022/03/16 08:10:40;;;;;;;48.95;32.38;;;6.60;99.90;;;;;;5111692;28;20056;-75
2022/03/16 08:13:06;;;;;;;43.75;32.30;;;6.70;99.90;;;;;;5110212;28;20046;-76
2022/03/16 08:15:33;;;;;;;43.35;30.20;;;6.90;99.90;;;;;;5094982;28;20406;-76
2022/03/16 08:18:01;;;;;;;44.45;30.73;;;7.00;99.90;;;;;;5114233;28;20043;-75
2022/03/16 08:20:27;;;;;;;36.20;27.10;;;7.10;99.90;;;;;;5113746;28;20113;-76
2022/03/16 08:22:56;;;;;;;38.97;25.50;;;7.20;99.90;;;;;;5113880;28;20490;-76
2022/03/16 08:25:22;;;;;;;38.63;25.63;;;7.30;99.90;;;;;;5103172;28;20058;-76
2022/03/16 08:27:49;;;;;;;36.03;25.67;;;7.40;99.90;;;;;;5109752;28;20052;-75
2022/03/16 08:30:16;;;;;;;40.80;24.90;;;7.50;99.90;;;;;;5113135;28;20600;-75
2022/03/16 08:32:42;;;;;;;34.47;24.83;;;7.50;99.90;;;;;;5113622;28;20035;-75
2022/03/16 08:35:11;;;;;;;30.08;22.15;;;7.60;99.90;;;;;;5095278;28;20051;-75
2022/03/16 08:37:38;;;;;;;33.33;24.42;;;7.70;99.90;;;;;;5111999;28;20040;-75
2022/03/16 08:40:05;;;;;;;37.00;25.08;;;7.80;99.90;;;;;;5103032;28;20042;-76
2022/03/16 08:42:31;;;;;;;31.02;22.95;;;8.00;99.90;;;;;;5113570;28;20054;-75
2022/03/16 08:44:57;;;;;;;27.60;22.05;;;8.00;99.90;;;;;;5109807;28;20039;-75
2022/03/16 08:47:23;;;;;;;30.30;21.63;;;8.20;99.90;;;;;;5100756;28;20048;-76
2022/03/16 08:49:53;;;;;;;27.17;21.13;;;8.30;99.90;;;;;;5085863;28;20087;-76
2022/03/16 08:52:19;;;;;;;25.15;20.33;;;8.40;99.90;;;;;;5113485;28;20047;-76
2022/03/16 08:54:45;;;;;;;26.02;20.45;;;8.50;99.90;;;;;;5113213;28;20044;-75
2022/03/16 08:57:11;;;;;;;31.95;20.27;;;8.60;99.90;;;;;;5112787;28;20055;-75
2022/03/16 08:59:38;;;;;;;25.08;19.92;;;8.70;99.90;;;;;;5113615;28;20379;-75
2022/03/16 09:02:05;;;;;;;25.95;20.02;;;8.90;99.90;;;;;;5092044;28;20387;-75
2022/03/16 09:04:31;;;;;;;28.58;19.77;;;9.00;99.90;;;;;;5111804;28;20036;-75
2022/03/16 09:07:02;;;;;;;27.30;19.42;;;9.10;99.90;;;;;;5113374;28;20496;-75
2022/03/16 09:09:29;;;;;;;26.38;19.33;;;9.20;99.90;;;;;;5103456;28;20120;-75
2022/03/16 09:11:54;;;;;;;25.65;19.75;;;9.30;99.90;;;;;;5109088;28;20118;-75
2022/03/16 09:14:20;;;;;;;29.30;19.95;;;9.40;99.90;;;;;;5112842;28;20446;-75
2022/03/16 09:16:47;;;;;;;26.15;19.85;;;9.50;99.90;;;;;;5112601;28;20036;-75
2022/03/16 09:19:22;;;;;;;30.48;21.85;;;9.60;99.90;;;;;;5112359;28;20048;-75
2022/03/16 09:21:48;;;;;;;28.17;22.23;;;9.70;99.90;;;;;;5094076;28;20042;-75
2022/03/16 09:24:15;;;;;;;28.60;21.50;;;9.80;99.90;;;;;;5112864;28;20116;-75
2022/03/16 09:26:42;;;;;;;29.77;22.00;;;9.90;99.90;;;;;;5113092;28;20109;-75
2022/03/16 09:29:09;;;;;;;32.75;22.92;;;10.00;99.90;;;;;;5094515;28;20494;-75
2022/03/16 09:31:36;;;;;;;33.13;22.20;;;10.10;99.90;;;;;;5112411;28;20050;-75
2022/03/16 09:34:05;;;;;;;29.42;20.50;;;10.20;99.90;;;;;;5112415;28;20199;-75
2022/03/16 09:36:32;;;;;;;30.88;20.98;;;10.30;99.90;;;;;;5113478;28;20076;-75
2022/03/16 09:38:59;;;;;;;26.80;19.58;;;10.50;99.90;;;;;;5112586;28;20035;-74
2022/03/16 09:41:26;;;;;;;25.67;18.85;;;10.60;99.90;;;;;;5112717;28;20205;-75
2022/03/16 09:43:53;;;;;;;23.73;16.88;;;10.80;99.90;;;;;;5091731;28;20161;-74
2022/03/16 09:46:26;;;;;;;24.70;16.90;;;10.90;99.90;;;;;;5111546;28;20128;-74
2022/03/16 09:48:52;;;;;;;21.05;16.50;;;11.00;99.90;;;;;;5110564;28;20101;-75
2022/03/16 09:51:19;;;;;;;24.58;16.48;;;11.10;99.90;;;;;;5109160;28;20043;-74
2022/03/16 09:53:45;;;;;;;22.02;16.48;;;11.20;99.90;;;;;;5111955;28;20047;-74
2022/03/16 09:56:12;;;;;;;23.65;16.88;;;11.20;99.90;;;;;;5113173;28;20052;-76
2022/03/16 09:58:38;;;;;;;23.90;16.52;;;11.30;99.90;;;;;;5108094;28;20093;-74
2022/03/16 10:01:07;;;;;;;20.90;15.82;;;11.40;99.90;;;;;;5093887;28;20082;-74
2022/03/16 10:03:35;;;;;;;19.33;13.80;;;11.60;99.90;;;;;;5112712;28;20043;-75
2022/03/16 10:06:04;;;;;;;19.45;13.15;;;11.70;99.90;;;;;;5107281;28;20040;-74
2022/03/16 10:08:34;;;;;;;19.48;14.02;;;11.80;99.90;;;;;;5097522;28;20482;-75
2022/03/16 10:13:58;;;;;;;16.10;11.43;;;12.00;99.90;;;;;;5112123;28;20048;-75
2022/03/16 10:16:24;;;;;;;16.23;12.23;;;12.10;99.90;;;;;;5112994;28;20101;-74
2022/03/16 10:18:57;;;;;;;16.55;10.55;;;12.10;99.90;;;;;;5112123;28;20044;-74
2022/03/16 10:21:24;;;;;;;15.43;10.23;;;12.20;99.90;;;;;;5092258;28;20042;-74
2022/03/16 10:24:02;;;;;;;16.60;10.70;;;12.30;99.90;;;;;;5083194;28;20036;-74
2022/03/16 10:26:28;;;;;;;16.30;11.10;;;12.30;99.90;;;;;;5097107;28;20052;-75
2022/03/16 10:29:01;;;;;;;16.92;11.45;;;12.40;99.90;;;;;;5095918;28;20054;-75
2022/03/16 10:31:26;;;;;;;16.67;12.00;;;12.40;99.90;;;;;;5091800;28;20048;-74
2022/03/16 10:33:53;;;;;;;15.95;12.05;;;12.40;99.90;;;;;;5114837;28;20046;-74
2022/03/16 10:36:24;;;;;;;19.50;11.73;;;12.40;99.90;;;;;;5107314;28;20035;-74
2022/03/16 10:38:54;;;;;;;17.67;11.30;;;12.50;99.90;;;;;;5098827;28;20039;-74
2022/03/16 10:47:00;;;;;;;13.25;10.18;;;12.80;99.90;;;;;;5116568;28;20126;-74
2022/03/16 10:49:30;;;;;;;15.30;11.57;;;12.90;99.90;;;;;;5111927;28;20059;-73
2022/03/16 10:52:05;;;;;;;14.40;10.98;;;12.90;99.90;;;;;;5113182;28;20055;-74
2022/03/16 10:54:32;;;;;;;;;;;13.00;99.90;;;;;;5091971;28;20116;-74
2022/03/16 10:57:01;;;;;;;15.77;9.68;;;13.10;99.90;;;;;;5096400;28;19973;-75
2022/03/16 10:59:33;;;;;;;13.20;9.52;;;13.10;99.90;;;;;;5116301;28;20044;-74
2022/03/16 11:02:12;;;;;;;16.52;10.32;;;13.20;99.90;;;;;;5115308;28;20115;-75
2022/03/16 11:04:39;;;;;;;16.33;10.80;;;13.40;99.90;;;;;;5097451;28;20052;-74
2022/03/16 11:07:07;;;;;;;12.48;9.43;;;13.40;99.90;;;;;;5111386;28;20048;-75
2022/03/16 11:09:34;;;;;;;15.65;10.65;;;13.50;99.90;;;;;;5113706;28;20920;-74
2022/03/16 11:14:48;;;;;;;12.93;9.15;;;13.50;99.90;;;;;;5096760;28;20405;-76
2022/03/16 11:17:14;;;;;;;15.85;10.40;;;13.60;99.90;;;;;;5114745;28;20074;-74
2022/03/16 11:19:44;;;;;;;15.38;10.02;;;13.70;99.90;;;;;;5115702;28;20039;-76
2022/03/16 11:22:27;;;;;;;14.25;9.88;;;13.70;99.90;;;;;;5097268;28;20051;-75
2022/03/16 11:25:21;;;;;;;19.25;10.85;;;13.80;99.90;;;;;;5114534;28;20546;-76
2022/03/16 11:27:51;;;;;;;15.30;9.75;;;13.90;99.90;;;;;;5079126;28;20055;-76
2022/03/16 11:30:36;;;;;;;14.50;9.73;;;14.00;99.90;;;;;;5113953;28;20398;-73
2022/03/16 11:33:04;;;;;;;20.17;11.57;;;14.10;99.90;;;;;;5095938;28;20490;-74
2022/03/16 11:35:36;;;;;;;16.27;10.60;;;14.10;99.90;;;;;;5115472;28;20440;-75
2022/03/16 11:38:09;;;;;;;14.88;10.38;;;14.20;99.90;;;;;;5114043;28;20075;-75
2022/03/16 11:40:37;;;;;;;14.88;9.68;;;14.20;99.90;;;;;;5114925;28;20048;-74
2022/03/16 11:43:11;;;;;;;12.77;9.57;;;14.20;99.90;;;;;;5097162;28;20402;-75
2022/03/16 11:45:50;;;;;;;13.03;9.23;;;14.30;99.90;;;;;;5095433;28;20051;-74
2022/03/16 11:48:37;;;;;;;13.80;10.23;;;14.30;99.90;;;;;;5114939;28;20532;-74
2022/03/16 11:51:08;;;;;;;12.77;9.93;;;14.30;99.90;;;;;;5115101;28;20551;-74
2022/03/16 11:56:26;;;;;;;14.98;10.48;;;14.50;99.90;;;;;;5094547;28;20090;-73
2022/03/16 11:58:55;;;;;;;14.25;11.23;;;14.50;99.90;;;;;;5075695;28;20048;-74
2022/03/16 12:01:29;;;;;;;13.10;9.82;;;14.60;99.90;;;;;;5076455;28;20434;-74
2022/03/16 12:04:12;;;;;;;14.60;9.98;;;14.60;99.90;;;;;;5094777;28;20036;-74
2022/03/16 12:07:02;;;;;;;10.95;8.10;;;14.70;99.90;;;;;;5095374;28;20321;-74
2022/03/16 12:09:51;;;;;;;14.68;8.88;;;14.80;98.10;;;;;;5076263;28;20049;-74
2022/03/16 12:15:11;;;;;;;10.77;7.95;;;14.80;97.80;;;;;;5095408;28;20044;-74
2022/03/16 12:17:52;;;;;;;11.48;8.77;;;14.80;98.80;;;;;;5094959;28;20112;-74
2022/03/16 12:20:31;;;;;;;12.90;8.57;;;14.90;98.20;;;;;;5113738;28;20073;-74
2022/03/16 12:22:56;;;;;;;11.43;8.30;;;14.90;97.90;;;;;;5065336;28;20402;-74
2022/03/16 12:25:26;;;;;;;15.00;8.65;;;14.90;99.10;;;;;;5097878;28;20114;-73
2022/03/16 12:30:52;;;;;;;10.02;8.52;;;15.00;95.40;;;;;;5114132;28;20048;-74
2022/03/16 12:33:22;;;;;;;13.23;9.52;;;15.00;94.30;;;;;;5079213;28;20107;-74
2022/03/16 12:35:53;;;;;;;14.77;9.82;;;15.00;96.40;;;;;;5078491;28;20047;-74
2022/03/16 12:38:21;;;;;;;11.85;8.27;;;15.10;96.30;;;;;;5111445;28;20048;-74
2022/03/16 12:43:37;;;;;;;11.55;8.35;;;15.20;96.00;;;;;;5114163;28;20039;-75
2022/03/16 12:46:19;;;;;;;13.18;9.35;;;15.20;95.80;;;;;;5113716;28;20051;-74
2022/03/16 12:48:54;;;;;;;11.75;9.07;;;15.30;93.90;;;;;;5111445;28;20150;-74
2022/03/16 12:51:44;;;;;;;13.18;9.80;;;15.30;93.40;;;;;;5113881;28;20055;-74
2022/03/16 12:54:12;;;;;;;12.60;9.52;;;15.30;89.90;;;;;;5111127;28;20051;-73
2022/03/16 12:56:48;;;;;;;15.70;11.05;;;15.30;94.10;;;;;;5112623;28;20078;-74
2022/03/16 12:59:21;;;;;;;14.05;10.55;;;15.30;94.60;;;;;;5113872;28;20562;-74